createdAt,value
2023-04-02T00:01:01.631Z,96416.86
2023-04-02T00:03:42.538Z,96418.86
2023-04-02T00:06:26.221Z,96417.02
2023-04-02T00:08:56.312Z,96417.48
2023-04-02T00:11:35.795Z,96426.59
2023-04-02T00:14:04.973Z,96426.48
2023-04-02T00:16:33.181Z,96427.38
2023-04-02T00:19:04.400Z,96430.05
2023-04-02T00:21:38.878Z,96433.36
2023-04-02T00:24:13.964Z,96433.56
2023-04-02T00:26:45.904Z,96437.25
2023-04-02T00:29:14.753Z,96436.40
2023-04-02T00:31:44.386Z,96439.71
2023-04-02T00:34:36.667Z,96439.71
2023-04-02T00:37:05.359Z,96443.71
2023-04-02T00:39:38.850Z,96440.69
2023-04-02T00:42:06.902Z,96440.92
2023-04-02T00:44:38.106Z,96439.95
2023-04-02T00:47:21.495Z,96441.18
2023-04-02T00:49:51.927Z,96443.55
2023-04-02T00:52:22.858Z,96448.72
2023-04-02T00:54:53.173Z,96448.15
2023-04-02T00:57:25.879Z,96447.37
2023-04-02T00:59:58.647Z,96448.98
2023-04-02T01:02:28.325Z,96453.06
2023-04-02T01:05:01.036Z,96455.45
2023-04-02T01:07:38.522Z,96457.02
2023-04-02T01:10:42.033Z,96458.95
2023-04-02T01:13:28.120Z,96460.38
2023-04-02T01:16:19.433Z,96462.73
2023-04-02T01:19:02.100Z,96469.27
2023-04-02T01:21:37.205Z,96471.05
2023-04-02T01:24:06.592Z,96476.20
2023-04-02T01:26:37.940Z,96478.41
2023-04-02T01:29:06.934Z,96477.16
2023-04-02T01:31:35.431Z,96476.58
2023-04-02T01:34:06.054Z,96476.90
2023-04-02T01:36:40.568Z,96476.36
2023-04-02T01:39:27.498Z,96476.38
2023-04-02T01:42:05.092Z,96480.51
2023-04-02T01:44:44.204Z,96477.79
2023-04-02T01:47:13.697Z,96482.14
2023-04-02T01:49:45.472Z,96482.23
2023-04-02T01:52:16.832Z,96483.33
2023-04-02T01:54:47.492Z,96479.77
2023-04-02T01:57:16.819Z,96480.52
2023-04-02T01:59:45.744Z,96480.99
2023-04-02T02:02:14.365Z,96482.48
2023-04-02T02:04:43.015Z,96481.21
2023-04-02T02:07:15.176Z,96484.47
2023-04-02T02:09:45.209Z,96486.09
2023-04-02T02:12:14.299Z,96485.73
2023-04-02T02:14:49.872Z,96489.61
2023-04-02T02:17:19.498Z,96495.42
2023-04-02T02:20:00.439Z,96495.67
2023-04-02T02:22:37.745Z,96500.59
2023-04-02T02:25:08.043Z,96500.59
2023-04-02T02:27:48.157Z,96502.64
2023-04-02T02:30:18.118Z,96501.65
2023-04-02T02:32:51.245Z,96502.96
2023-04-02T02:35:19.479Z,96509.29
2023-04-02T02:37:50.859Z,96507.91
2023-04-02T02:40:21.972Z,96507.12
2023-04-02T02:42:52.514Z,96506.48
2023-04-02T02:45:22.828Z,96504.13
2023-04-02T02:47:52.170Z,96512.36
2023-04-02T02:50:25.933Z,96509.96
2023-04-02T02:52:55.436Z,96510.65
2023-04-02T02:55:32.098Z,96512.67
2023-04-02T02:58:11.164Z,96510.77
2023-04-02T03:00:46.558Z,96514.71
2023-04-02T03:03:17.234Z,96516.23
2023-04-02T03:05:50.196Z,96515.44
2023-04-02T03:08:33.648Z,96523.45
2023-04-02T03:11:12.659Z,96524.04
2023-04-02T03:13:47.357Z,96528.36
2023-04-02T03:16:21.245Z,96529.52
2023-04-02T03:19:12.219Z,96529.02
2023-04-02T03:21:49.599Z,96528.63
2023-04-02T03:24:37.456Z,96533.33
2023-04-02T03:27:10.603Z,96534.40
2023-04-02T03:29:44.827Z,96539.27
2023-04-02T03:32:17.523Z,96538.93
2023-04-02T03:34:51.740Z,96541.39
2023-04-02T03:37:30.146Z,96544.65
2023-04-02T03:40:00.897Z,96550.66
2023-04-02T03:42:37.597Z,96552.70
2023-04-02T03:45:27.239Z,96559.05
2023-04-02T03:48:04.854Z,96560.66
2023-04-02T03:50:41.379Z,96565.45
2023-04-02T03:53:09.583Z,96570.77
2023-04-02T03:55:38.895Z,96571.17
2023-04-02T03:58:21.494Z,96571.91
2023-04-02T04:00:53.060Z,96572.76
2023-04-02T04:03:31.864Z,96573.75
2023-04-02T04:06:06.703Z,96575.91
2023-04-02T04:08:42.528Z,96578.65
2023-04-02T04:11:15.629Z,96583.73
2023-04-02T04:13:50.444Z,96589.89
2023-04-02T04:16:21.014Z,96592.27
2023-04-02T04:18:53.371Z,96591.01
2023-04-02T04:21:37.223Z,96587.00
2023-04-02T04:24:22.055Z,96589.39
2023-04-02T04:26:53.760Z,96595.33
2023-04-02T04:29:24.872Z,96596.67
2023-04-02T04:31:56.212Z,96597.75
2023-04-02T04:34:42.640Z,96605.09
2023-04-02T04:37:21.690Z,96605.83
2023-04-02T04:40:04.282Z,96605.30
2023-04-02T04:42:35.002Z,96606.73
2023-04-02T04:45:27.753Z,96608.16
2023-04-02T04:48:02.016Z,96610.39
2023-04-02T04:50:30.873Z,96611.75
2023-04-02T04:53:05.494Z,96613.90
2023-04-02T04:55:39.201Z,96622.03
2023-04-02T04:58:26.279Z,96623.94
2023-04-02T05:01:07.527Z,96624.05
2023-04-02T05:03:38.598Z,96625.39
2023-04-02T05:06:13.984Z,96629.69
2023-04-02T05:08:44.272Z,96630.63
2023-04-02T05:11:22.311Z,96633.73
2023-04-02T05:14:02.501Z,96633.45
2023-04-02T05:16:47.119Z,96636.80
2023-04-02T05:19:25.576Z,96638.36
2023-04-02T05:21:57.808Z,96635.39
2023-04-02T05:24:32.279Z,96633.13
2023-04-02T05:27:03.472Z,96634.08
2023-04-02T05:29:35.699Z,96635.59
2023-04-02T05:32:03.749Z,96637.48
2023-04-02T05:34:37.620Z,96643.00
2023-04-02T05:37:07.303Z,96642.84
2023-04-02T05:39:35.831Z,96641.86
2023-04-02T05:42:05.625Z,96641.82
2023-04-02T05:44:56.438Z,96645.23
2023-04-02T05:47:27.911Z,96648.93
2023-04-02T05:50:11.212Z,96650.08
2023-04-02T05:52:47.370Z,96652.68
2023-04-02T05:55:18.937Z,96652.45
2023-04-02T05:58:07.044Z,96659.23
2023-04-02T06:00:42.206Z,96661.25
2023-04-02T06:03:24.222Z,96664.94
2023-04-02T06:05:56.579Z,96670.98
2023-04-02T06:08:27.614Z,96675.08
2023-04-02T06:10:55.696Z,96679.45
2023-04-02T06:13:27.597Z,96685.41
2023-04-02T06:15:56.650Z,96685.69
2023-04-02T06:18:30.976Z,96683.28
2023-04-02T06:20:59.044Z,96685.86
2023-04-02T06:23:38.338Z,96689.04
2023-04-02T06:26:33.424Z,96687.39
2023-04-02T06:29:08.982Z,96685.08
2023-04-02T06:31:52.068Z,96688.81
2023-04-02T06:34:23.718Z,96689.33
2023-04-02T06:37:13.188Z,96689.27
2023-04-02T06:39:43.089Z,96692.34
2023-04-02T06:42:19.566Z,96695.15
2023-04-02T06:45:23.801Z,96695.35
2023-04-02T06:48:17.148Z,96694.53
2023-04-02T06:50:49.108Z,96699.03
2023-04-02T06:53:23.608Z,96700.80
2023-04-02T06:56:11.065Z,96701.45
2023-04-02T06:58:39.035Z,96702.88
2023-04-02T07:01:07.006Z,96705.26
2023-04-02T07:03:41.319Z,96704.98
2023-04-02T07:06:32.632Z,96712.30
2023-04-02T07:09:09.825Z,96712.30
2023-04-02T07:11:40.544Z,96714.38
2023-04-02T07:14:13.247Z,96719.86
2023-04-02T07:16:42.443Z,96719.30
2023-04-02T07:19:21.995Z,96719.70
2023-04-02T07:21:54.074Z,96723.00
2023-04-02T07:24:23.024Z,96726.88
2023-04-02T07:26:51.612Z,96731.46
2023-04-02T07:29:19.985Z,96735.67
2023-04-02T07:31:48.000Z,96737.30
2023-04-02T07:34:16.228Z,96740.35
2023-04-02T07:36:44.056Z,96744.27
2023-04-02T07:39:12.479Z,96751.36
2023-04-02T07:41:57.054Z,96753.51
2023-04-02T07:44:25.120Z,96752.05
2023-04-02T07:46:53.254Z,96752.93
2023-04-02T07:49:21.667Z,96755.24
2023-04-02T07:51:49.942Z,96758.65
2023-04-02T07:54:17.916Z,96758.09
2023-04-02T07:56:45.658Z,96759.31
2023-04-02T07:59:13.759Z,96764.21
2023-04-02T08:01:43.210Z,96764.77
2023-04-02T08:04:19.153Z,96766.65
2023-04-02T08:06:47.691Z,96768.54
2023-04-02T08:09:16.384Z,96768.32
2023-04-02T08:11:44.351Z,96767.55
2023-04-02T08:14:12.216Z,96766.29
2023-04-02T08:16:53.830Z,96766.32
2023-04-02T08:19:22.384Z,96767.10
2023-04-02T08:21:52.025Z,96772.27
2023-04-02T08:24:20.167Z,96770.27
2023-04-02T08:26:48.978Z,96772.73
2023-04-02T08:29:17.145Z,96773.95
2023-04-02T08:31:45.316Z,96777.48
2023-04-02T08:34:13.310Z,96780.42
2023-04-02T08:36:43.702Z,96781.20
2023-04-02T08:39:12.044Z,96785.78
2023-04-02T08:42:01.053Z,96787.16
2023-04-02T08:44:39.862Z,96788.50
2023-04-02T08:47:08.870Z,96786.98
2023-04-02T08:49:44.001Z,96790.52
2023-04-02T08:52:32.098Z,96793.89
2023-04-02T08:55:01.510Z,96798.27
2023-04-02T08:57:38.735Z,96800.58
2023-04-02T09:00:11.596Z,96802.27
2023-04-02T09:02:49.576Z,96805.29
2023-04-02T09:05:20.860Z,96806.75
2023-04-02T09:07:50.895Z,96807.04
2023-04-02T09:10:19.261Z,96810.55
2023-04-02T09:12:51.848Z,96810.83
2023-04-02T09:15:26.400Z,96812.56
2023-04-02T09:18:00.720Z,96813.94
2023-04-02T09:20:29.516Z,96818.69
2023-04-02T09:22:58.048Z,96821.44
2023-04-02T09:25:27.559Z,96821.55
2023-04-02T09:27:57.012Z,96824.07
2023-04-02T09:30:31.518Z,96823.69
2023-04-02T09:33:07.778Z,96827.98
2023-04-02T09:35:51.566Z,96830.73
2023-04-02T09:38:21.685Z,96830.84
2023-04-02T09:40:53.985Z,96831.36
2023-04-02T09:43:23.389Z,96834.15
2023-04-02T09:46:09.925Z,96834.85
2023-04-02T09:48:43.991Z,96834.36
2023-04-02T09:51:18.475Z,96836.65
2023-04-02T09:53:49.210Z,96836.59
2023-04-02T09:56:19.170Z,96837.53
2023-04-02T09:59:02.107Z,96835.77
2023-04-02T10:01:35.244Z,96838.42
2023-04-02T10:04:04.975Z,96836.95
2023-04-02T10:06:34.211Z,96833.94
2023-04-02T10:09:25.072Z,96837.66
2023-04-02T10:11:54.810Z,96836.91
2023-04-02T10:14:28.339Z,96836.23
2023-04-02T10:17:01.568Z,96836.27
2023-04-02T10:19:33.464Z,96836.48
2023-04-02T10:22:21.865Z,96840.10
2023-04-02T10:24:50.964Z,96841.71
2023-04-02T10:27:33.851Z,96842.04
2023-04-02T10:30:05.595Z,96846.59
2023-04-02T10:32:36.363Z,96845.27
2023-04-02T10:35:04.263Z,96848.70
2023-04-02T10:37:49.252Z,96845.70
2023-04-02T10:40:35.143Z,96842.68
2023-04-02T10:43:29.086Z,96840.90
2023-04-02T10:46:02.361Z,96842.13
2023-04-02T10:48:47.303Z,96844.25
2023-04-02T10:51:38.393Z,96843.73
2023-04-02T10:54:18.862Z,96842.48
2023-04-02T10:56:51.004Z,96842.67
2023-04-02T10:59:24.940Z,96841.41
2023-04-02T11:01:56.396Z,96842.58
2023-04-02T11:04:27.738Z,96844.19
2023-04-02T11:07:11.289Z,96844.13
2023-04-02T11:09:44.016Z,96845.30
2023-04-02T11:12:19.799Z,96846.55
2023-04-02T11:14:49.534Z,96844.55
2023-04-02T11:17:18.203Z,96843.48
2023-04-02T11:19:46.291Z,96845.12
2023-04-02T11:22:16.490Z,96844.90
2023-04-02T11:24:46.302Z,96841.64
2023-04-02T11:27:17.248Z,96841.89
2023-04-02T11:29:47.159Z,96839.38
2023-04-02T11:32:27.466Z,96838.11
2023-04-02T11:35:05.155Z,96838.02
2023-04-02T11:37:39.877Z,96840.27
2023-04-02T11:40:16.531Z,96843.60
2023-04-02T11:42:45.929Z,96842.81
2023-04-02T11:45:20.888Z,96840.89
2023-04-02T11:48:01.915Z,96843.47
2023-04-02T11:50:43.936Z,96842.54
2023-04-02T11:53:11.894Z,96842.29
2023-04-02T11:55:41.824Z,96843.08
2023-04-02T11:58:12.746Z,96838.27
2023-04-02T12:00:59.521Z,96838.68
2023-04-02T12:03:31.025Z,96843.73
2023-04-02T12:06:10.890Z,96844.02
2023-04-02T12:08:57.672Z,96846.45
2023-04-02T12:11:33.848Z,96846.28
2023-04-02T12:14:06.914Z,96847.64
2023-04-02T12:16:35.471Z,96845.17
2023-04-02T12:19:08.088Z,96844.76
2023-04-02T12:21:37.896Z,96841.10
2023-04-02T12:24:06.575Z,96841.39
2023-04-02T12:26:38.633Z,96838.96
2023-04-02T12:29:26.360Z,96839.34
2023-04-02T12:31:56.215Z,96835.77
2023-04-02T12:34:25.737Z,96839.16
2023-04-02T12:36:55.054Z,96837.55
2023-04-02T12:39:25.882Z,96837.17
2023-04-02T12:41:55.540Z,96842.31
2023-04-02T12:44:25.975Z,96844.25
2023-04-02T12:46:54.515Z,96843.60
2023-04-02T12:49:35.399Z,96847.78
2023-04-02T12:52:07.901Z,96851.24
2023-04-02T12:54:45.256Z,96852.68
2023-04-02T12:57:23.860Z,96854.05
2023-04-02T12:59:53.002Z,96858.09
2023-04-02T13:02:25.919Z,96857.78
2023-04-02T13:04:55.303Z,96860.23
2023-04-02T13:07:25.927Z,96856.08
2023-04-02T13:09:55.835Z,96856.40
2023-04-02T13:12:23.912Z,96857.44
2023-04-02T13:14:53.425Z,96856.09
2023-04-02T13:17:37.928Z,96853.89
2023-04-02T13:20:24.888Z,96856.05
2023-04-02T13:22:52.868Z,96858.73
2023-04-02T13:25:25.031Z,96860.66
2023-04-02T13:27:54.036Z,96865.20
2023-04-02T13:30:23.451Z,96869.15
2023-04-02T13:32:51.621Z,96866.30
2023-04-02T13:35:19.868Z,96871.40
2023-04-02T13:37:49.207Z,96874.17
2023-04-02T13:40:19.305Z,96878.29
2023-04-02T13:42:49.025Z,96883.24
2023-04-02T13:45:19.958Z,96884.80
2023-04-02T13:47:47.968Z,96883.56
2023-04-02T13:50:17.427Z,96884.27
2023-04-02T13:52:45.710Z,96884.83
2023-04-02T13:55:15.467Z,96884.90
2023-04-02T13:57:43.483Z,96887.25
2023-04-02T14:00:13.104Z,96884.96
2023-04-02T14:02:43.904Z,96882.31
2023-04-02T14:05:12.193Z,96884.38
2023-04-02T14:07:58.766Z,96887.45
2023-04-02T14:10:47.255Z,96887.02
2023-04-02T14:13:33.622Z,96886.68
2023-04-02T14:16:20.828Z,96884.46
2023-04-02T14:19:07.485Z,96886.80
2023-04-02T14:21:46.304Z,96884.58
2023-04-02T14:24:17.462Z,96884.56
2023-04-02T14:26:52.252Z,96883.87
2023-04-02T14:29:29.240Z,96887.15
2023-04-02T14:32:00.611Z,96887.58
2023-04-02T14:34:29.402Z,96885.53
2023-04-02T14:36:57.881Z,96888.36
2023-04-02T14:39:37.937Z,96890.60
2023-04-02T14:42:18.521Z,96892.98
2023-04-02T14:44:53.226Z,96890.38
2023-04-02T14:47:24.727Z,96894.08
2023-04-02T14:49:56.324Z,96895.52
2023-04-02T14:52:27.068Z,96896.73
2023-04-02T14:55:02.513Z,96896.50
2023-04-02T14:57:32.774Z,96900.17
2023-04-02T15:00:11.009Z,96897.67
2023-04-02T15:02:57.678Z,96896.46
2023-04-02T15:05:36.265Z,96896.54
2023-04-02T15:08:35.166Z,96896.93
2023-04-02T15:11:08.585Z,96898.63
2023-04-02T15:13:38.888Z,96908.19
2023-04-02T15:16:13.613Z,96923.20
2023-04-02T15:18:41.583Z,96942.35
2023-04-02T15:21:29.615Z,96940.76
2023-04-02T15:24:09.779Z,96948.21
2023-04-02T15:26:43.681Z,96948.37
2023-04-02T15:29:29.294Z,96952.89
2023-04-02T15:32:16.387Z,96955.91
2023-04-02T15:34:44.178Z,96962.75
2023-04-02T15:37:30.959Z,96961.04
2023-04-02T15:40:02.004Z,96960.75
2023-04-02T15:42:35.665Z,96967.11
2023-04-02T15:45:12.808Z,96967.13
2023-04-02T15:47:40.835Z,96967.12
2023-04-02T15:50:14.664Z,96969.11
2023-04-02T15:52:57.972Z,96969.54
2023-04-02T15:55:29.352Z,96974.23
2023-04-02T15:58:00.912Z,96978.09
2023-04-02T16:00:33.220Z,96979.41
2023-04-02T16:03:20.710Z,96979.70
2023-04-02T16:05:54.353Z,96983.48
2023-04-02T16:08:33.850Z,96981.48
2023-04-02T16:11:01.709Z,96979.31
2023-04-02T16:13:31.422Z,96978.31
2023-04-02T16:16:09.449Z,96978.04
2023-04-02T16:18:50.804Z,96981.46
2023-04-02T16:21:29.098Z,96981.90
2023-04-02T16:23:56.853Z,96981.98
2023-04-02T16:26:31.013Z,96980.35
2023-04-02T16:29:19.541Z,96979.35
2023-04-02T16:31:57.539Z,96982.05
2023-04-02T16:34:25.520Z,96982.73
2023-04-02T16:37:20.015Z,96989.59
2023-04-02T16:39:54.231Z,96994.52
2023-04-02T16:42:28.554Z,96993.08
2023-04-02T16:45:02.776Z,96994.56
2023-04-02T16:47:50.017Z,96993.27
2023-04-02T16:50:24.463Z,96997.10
2023-04-02T16:52:57.193Z,96996.73
2023-04-02T16:55:51.373Z,97002.05
2023-04-02T16:58:31.988Z,97006.41
2023-04-02T17:01:23.106Z,97005.63
2023-04-02T17:04:01.397Z,97005.51
2023-04-02T17:06:52.984Z,97002.48
2023-04-02T17:09:38.971Z,97003.30
2023-04-02T17:12:11.349Z,97003.45
2023-04-02T17:14:42.773Z,97006.81
2023-04-02T17:17:12.406Z,97010.47
2023-04-02T17:19:41.908Z,97010.16
2023-04-02T17:22:12.856Z,97011.23
2023-04-02T17:24:44.619Z,97012.92
2023-04-02T17:27:22.610Z,97012.38
2023-04-02T17:29:53.151Z,97011.95
2023-04-02T17:32:27.044Z,97014.01
2023-04-02T17:34:55.687Z,97013.59
2023-04-02T17:37:30.119Z,97011.20
2023-04-02T17:40:07.459Z,97008.96
2023-04-02T17:42:47.427Z,97009.70
2023-04-02T17:45:20.080Z,97011.80
2023-04-02T17:48:06.371Z,97011.75
2023-04-02T17:50:52.473Z,97017.65
2023-04-02T17:53:20.757Z,97015.14
2023-04-02T17:56:03.882Z,97017.75
2023-04-02T17:58:33.990Z,97022.50
2023-04-02T18:01:22.491Z,97026.96
2023-04-02T18:03:50.701Z,97029.67
2023-04-02T18:06:21.142Z,97034.70
2023-04-02T18:09:19.429Z,97035.70
2023-04-02T18:11:52.979Z,97041.02
2023-04-02T18:14:26.940Z,97044.61
2023-04-02T18:16:58.010Z,97047.48
2023-04-02T18:19:32.688Z,97053.54
2023-04-02T18:22:01.928Z,97058.59
2023-04-02T18:24:46.653Z,97063.50
2023-04-02T18:27:23.962Z,97067.74
2023-04-02T18:29:51.927Z,97071.14
2023-04-02T18:32:23.203Z,97071.45
2023-04-02T18:34:54.217Z,97073.71
2023-04-02T18:37:31.313Z,97080.59
2023-04-02T18:40:17.704Z,97098.23
2023-04-02T18:43:04.508Z,97104.35
2023-04-02T18:45:35.559Z,97104.77
2023-04-02T18:48:22.369Z,97107.36
2023-04-02T18:50:53.981Z,97107.96
2023-04-02T18:53:24.603Z,97108.79
2023-04-02T18:55:58.251Z,97107.54
2023-04-02T18:58:45.058Z,97105.84
2023-04-02T19:01:15.707Z,97107.20
2023-04-02T19:03:55.124Z,97113.80
2023-04-02T19:06:27.297Z,97115.11
2023-04-02T19:08:59.766Z,97116.65
2023-04-02T19:11:31.656Z,97116.86
2023-04-02T19:14:04.932Z,97115.47
2023-04-02T19:16:42.114Z,97112.91
2023-04-02T19:19:38.442Z,97114.61
2023-04-02T19:22:16.918Z,97113.11
2023-04-02T19:24:55.183Z,97114.34
2023-04-02T19:27:25.901Z,97112.02
2023-04-02T19:30:12.728Z,97110.25
2023-04-02T19:33:01.808Z,97112.08
2023-04-02T19:35:29.851Z,97109.28
2023-04-02T19:38:03.481Z,97110.02
2023-04-02T19:41:00.710Z,97109.77
2023-04-02T19:43:29.350Z,97112.09
2023-04-02T19:45:57.420Z,97112.43
2023-04-02T19:48:26.891Z,97112.39
2023-04-02T19:50:54.936Z,97109.91
2023-04-02T19:53:22.830Z,97108.36
2023-04-02T19:55:51.290Z,97109.95
2023-04-02T19:58:27.673Z,97111.59
2023-04-02T20:00:56.327Z,97112.48
2023-04-02T20:03:24.623Z,97116.01
2023-04-02T20:05:52.958Z,97119.91
2023-04-02T20:08:21.378Z,97125.95
2023-04-02T20:10:49.282Z,97132.88
2023-04-02T20:13:17.316Z,97139.95
2023-04-02T20:15:45.198Z,97141.32
2023-04-02T20:18:13.476Z,97141.74
2023-04-02T20:20:41.403Z,97145.80
2023-04-02T20:23:09.410Z,97146.26
2023-04-02T20:25:37.271Z,97150.60
2023-04-02T20:28:05.068Z,97154.20
2023-04-02T20:30:33.046Z,97161.91
2023-04-02T20:33:01.467Z,97159.80
2023-04-02T20:35:30.007Z,97164.45
2023-04-02T20:37:58.147Z,97161.90
2023-04-02T20:40:26.424Z,97159.96
2023-04-02T20:42:54.597Z,97159.58
2023-04-02T20:45:22.582Z,97162.63
2023-04-02T20:47:50.985Z,97167.55
2023-04-02T20:50:19.116Z,97169.36
2023-04-02T20:52:47.025Z,97167.91
2023-04-02T20:55:14.830Z,97163.23
2023-04-02T20:57:42.817Z,97163.91
2023-04-02T21:00:12.123Z,97165.85
2023-04-02T21:02:40.227Z,97167.02
2023-04-02T21:05:08.327Z,97162.81
2023-04-02T21:07:36.450Z,97161.38
2023-04-02T21:10:04.843Z,97161.95
2023-04-02T21:12:35.761Z,97162.34
2023-04-02T21:15:03.769Z,97161.88
2023-04-02T21:17:31.679Z,97159.88
2023-04-02T21:19:59.676Z,97161.08
2023-04-02T21:22:27.752Z,97160.91
2023-04-02T21:24:55.711Z,97159.72
2023-04-02T21:27:26.077Z,97159.77
2023-04-02T21:29:54.233Z,97162.75
2023-04-02T21:32:22.433Z,97163.29
2023-04-02T21:34:50.653Z,97166.70
2023-04-02T21:37:18.622Z,97170.11
2023-04-02T21:39:46.773Z,97171.94
2023-04-02T21:42:15.266Z,97174.61
2023-04-02T21:44:43.112Z,97174.38
2023-04-02T21:47:11.220Z,97174.14
2023-04-02T21:49:39.286Z,97171.80
2023-04-02T21:52:07.361Z,97169.42
2023-04-02T21:54:35.279Z,97164.34
2023-04-02T21:57:03.649Z,97164.35
2023-04-02T21:59:31.607Z,97160.27
2023-04-02T22:01:59.624Z,97159.91
2023-04-02T22:04:29.569Z,97161.88
2023-04-02T22:06:57.886Z,97162.86
2023-04-02T22:09:27.047Z,97160.19
2023-04-02T22:11:59.163Z,97156.70
2023-04-02T22:14:27.711Z,97152.77
2023-04-02T22:16:55.844Z,97153.83
2023-04-02T22:19:23.830Z,97155.48
2023-04-02T22:21:53.229Z,97158.70
2023-04-02T22:24:25.489Z,97158.64
2023-04-02T22:26:53.576Z,97155.40
2023-04-02T22:29:21.647Z,97155.73
2023-04-02T22:31:49.625Z,97156.06
2023-04-02T22:34:17.779Z,97153.98
2023-04-02T22:36:45.756Z,97154.27
2023-04-02T22:39:13.734Z,97155.64
2023-04-02T22:41:41.607Z,97154.78
2023-04-02T22:44:13.255Z,97154.46
2023-04-02T22:46:41.834Z,97157.80
2023-04-02T22:49:11.238Z,97159.52
2023-04-02T22:51:39.300Z,97156.57
2023-04-02T22:54:07.202Z,97155.23
2023-04-02T22:56:37.469Z,97152.98
2023-04-02T22:59:06.008Z,97151.57
2023-04-02T23:01:35.681Z,97147.31
2023-04-02T23:04:05.220Z,97145.95
2023-04-02T23:06:33.862Z,97146.91
2023-04-02T23:09:01.953Z,97149.50
2023-04-02T23:11:29.888Z,97150.61
2023-04-02T23:13:58.533Z,97152.15
2023-04-02T23:16:27.948Z,97152.87
2023-04-02T23:18:56.425Z,97153.36
2023-04-02T23:21:24.666Z,97153.73
2023-04-02T23:23:52.649Z,97154.38
2023-04-02T23:26:22.189Z,97156.55
2023-04-02T23:28:50.983Z,97152.53
2023-04-02T23:31:20.598Z,97157.00
2023-04-02T23:33:48.839Z,97151.05
2023-04-02T23:36:20.419Z,97148.61
2023-04-02T23:38:48.550Z,97148.20
2023-04-02T23:41:17.048Z,97148.70
2023-04-02T23:43:44.997Z,97147.11
2023-04-02T23:46:13.009Z,97148.62
2023-04-02T23:48:41.344Z,97148.05
2023-04-02T23:51:09.187Z,97149.30
2023-04-02T23:53:37.689Z,97148.43
2023-04-02T23:56:06.177Z,97149.27
2023-04-02T23:58:34.018Z,97150.22
